sensor_id;sensor_type;location;lat;lon;timestamp;pressure;altitude;pressure_sealevel;temperature;humidity
31096;BME280;17749;51.962;8.560;2022-12-18T06:01:55;101402.06;;;-7.17;100.00
31096;BME280;17749;51.962;8.560;2022-12-18T06:04:27;101404.91;;;-7.12;100.00
31096;BME280;17749;51.962;8.560;2022-12-18T06:07:04;101399.94;;;-7.08;100.00
31096;BME280;17749;51.962;8.560;2022-12-18T06:09:39;101400.28;;;-7.01;100.00
31096;BME280;17749;51.962;8.560;2022-12-18T06:12:24;101405.59;;;-6.98;100.00
31096;BME280;17749;51.962;8.560;2022-12-18T06:15:00;101400.28;;;-7.01;100.00
31096;BME280;17749;51.962;8.560;2022-12-18T06:17:36;101400.59;;;-6.95;100.00
31096;BME280;17749;51.962;8.560;2022-12-18T06:20:12;101404.88;;;-6.96;100.00
31096;BME280;17749;51.962;8.560;2022-12-18T06:22:45;101405.59;;;-6.98;100.00
31096;BME280;17749;51.962;8.560;2022-12-18T06:25:21;101405.47;;;-7.01;100.00
31096;BME280;17749;51.962;8.560;2022-12-18T06:31:17;101423.81;;;-6.97;100.00
31096;BME280;17749;51.962;8.560;2022-12-18T06:33:50;101412.25;;;-7.03;100.00
31096;BME280;17749;51.962;8.560;2022-12-18T06:36:34;101420.13;;;-7.02;100.00
31096;BME280;17749;51.962;8.560;2022-12-18T06:39:30;101425.84;;;-7.08;100.00
31096;BME280;17749;51.962;8.560;2022-12-18T06:42:13;101430.72;;;-7.14;100.00
31096;BME280;17749;51.962;8.560;2022-12-18T06:45:09;101430.63;;;-7.15;100.00
31096;BME280;17749;51.962;8.560;2022-12-18T06:48:05;101427.88;;;-7.18;100.00
31096;BME280;17749;51.962;8.560;2022-12-18T06:50:51;101432.16;;;-7.19;100.00
31096;BME280;17749;51.962;8.560;2022-12-18T06:54:12;101436.22;;;-7.24;100.00
31096;BME280;17749;51.962;8.560;2022-12-18T06:57:17;101441.84;;;-7.31;100.00
31096;BME280;17749;51.962;8.560;2022-12-18T07:00:23;101452.06;;;-7.34;100.00
31096;BME280;17749;51.962;8.560;2022-12-18T07:03:16;101441.38;;;-7.40;100.00
31096;BME280;17749;51.962;8.560;2022-12-18T07:06:18;101442.84;;;-7.45;100.00
31096;BME280;17749;51.962;8.560;2022-12-18T07:09:31;101439.59;;;-7.41;100.00
31096;BME280;17749;51.962;8.560;2022-12-18T07:19:30;101437.81;;;-7.42;100.00
31096;BME280;17749;51.962;8.560;2022-12-18T07:22:48;101435.16;;;-7.44;100.00
31096;BME280;17749;51.962;8.560;2022-12-18T07:25:38;101421.97;;;-7.48;100.00
31096;BME280;17749;51.962;8.560;2022-12-18T07:28:49;101423.72;;;-7.47;100.00
31096;BME280;17749;51.962;8.560;2022-12-18T07:31:47;101431.03;;;-7.40;100.00
31096;BME280;17749;51.962;8.560;2022-12-18T07:35:15;101432.63;;;-7.42;100.00
31096;BME280;17749;51.962;8.560;2022-12-18T07:38:18;101432.72;;;-7.41;100.00
31096;BME280;17749;51.962;8.560;2022-12-18T07:41:13;101427.78;;;-7.36;100.00
31096;BME280;17749;51.962;8.560;2022-12-18T07:44:19;101433.88;;;-7.36;100.00
31096;BME280;17749;51.962;8.560;2022-12-18T07:47:29;101447.03;;;-7.31;100.00
31096;BME280;17749;51.962;8.560;2022-12-18T07:50:18;101447.22;;;-7.28;100.00
31096;BME280;17749;51.962;8.560;2022-12-18T07:53:15;101439.94;;;-7.19;100.00
31096;BME280;17749;51.962;8.560;2022-12-18T07:55:54;101439.09;;;-7.18;100.00
31096;BME280;17749;51.962;8.560;2022-12-18T07:59:53;101431.34;;;-7.01;100.00
31096;BME280;17749;51.962;8.560;2022-12-18T08:02:25;101435.38;;;-6.90;100.00
31096;BME280;17749;51.962;8.560;2022-12-18T08:04:52;101427.75;;;-6.87;100.00
31096;BME280;17749;51.962;8.560;2022-12-18T08:07:23;101429.78;;;-6.81;100.00
31096;BME280;17749;51.962;8.560;2022-12-18T08:09:50;101433.47;;;-6.60;100.00
31096;BME280;17749;51.962;8.560;2022-12-18T08:12:17;101426.28;;;-6.48;100.00
31096;BME280;17749;51.962;8.560;2022-12-18T08:14:44;101420.53;;;-6.42;100.00
31096;BME280;17749;51.962;8.560;2022-12-18T08:17:11;101419.28;;;-6.32;100.00
31096;BME280;17749;51.962;8.560;2022-12-18T08:19:59;101407.34;;;-6.29;100.00
31096;BME280;17749;51.962;8.560;2022-12-18T08:27:37;101410.03;;;-6.09;100.00
31096;BME280;17749;51.962;8.560;2022-12-18T08:30:04;101400.91;;;-6.01;100.00
31096;BME280;17749;51.962;8.560;2022-12-18T08:32:32;101402.09;;;-5.94;100.00
31096;BME280;17749;51.962;8.560;2022-12-18T08:34:59;101392.84;;;-5.88;100.00
31096;BME280;17749;51.962;8.560;2022-12-18T08:37:26;101400.47;;;-5.73;100.00
31096;BME280;17749;51.962;8.560;2022-12-18T08:39:53;101396.28;;;-5.69;100.00
31096;BME280;17749;51.962;8.560;2022-12-18T08:42:20;101391.38;;;-5.63;100.00
31096;BME280;17749;51.962;8.560;2022-12-18T08:45:06;101395.06;;;-5.58;100.00
31096;BME280;17749;51.962;8.560;2022-12-18T08:47:33;101393.13;;;-5.44;100.00
31096;BME280;17749;51.962;8.560;2022-12-18T08:49:59;101391.75;;;-5.36;100.00
31096;BME280;17749;51.962;8.560;2022-12-18T08:52:26;101405.09;;;-5.29;100.00
31096;BME280;17749;51.962;8.560;2022-12-18T08:54:54;101398.66;;;-5.17;100.00
31096;BME280;17749;51.962;8.560;2022-12-18T08:57:21;101401.59;;;-5.10;100.00
31096;BME280;17749;51.962;8.560;2022-12-18T08:59:47;101405.63;;;-4.97;100.00
31096;BME280;17749;51.962;8.560;2022-12-18T09:02:14;101402.41;;;-4.91;100.00
31096;BME280;17749;51.962;8.560;2022-12-18T09:04:42;101394.84;;;-4.85;100.00
31096;BME280;17749;51.962;8.560;2022-12-18T09:07:09;101392.59;;;-4.77;100.00
31096;BME280;17749;51.962;8.560;2022-12-18T09:09:36;101400.66;;;-4.71;100.00
31096;BME280;17749;51.962;8.560;2022-12-18T09:12:02;101394.13;;;-4.62;100.00
31096;BME280;17749;51.962;8.560;2022-12-18T09:14:30;101388.56;;;-4.50;100.00
31096;BME280;17749;51.962;8.560;2022-12-18T09:16:56;101400.16;;;-4.42;100.00
31096;BME280;17749;51.962;8.560;2022-12-18T09:19:23;101391.66;;;-4.37;100.00
31096;BME280;17749;51.962;8.560;2022-12-18T09:21:50;101389.22;;;-4.33;100.00
31096;BME280;17749;51.962;8.560;2022-12-18T09:24:17;101388.59;;;-4.27;100.00
31096;BME280;17749;51.962;8.560;2022-12-18T09:26:44;101395.59;;;-4.26;100.00
31096;BME280;17749;51.962;8.560;2022-12-18T09:29:14;101409.91;;;-4.15;100.00
31096;BME280;17749;51.962;8.560;2022-12-18T09:31:44;101409.25;;;-4.09;100.00
31096;BME280;17749;51.962;8.560;2022-12-18T09:34:11;101405.09;;;-4.06;100.00
31096;BME280;17749;51.962;8.560;2022-12-18T09:36:38;101401.09;;;-3.96;100.00
31096;BME280;17749;51.962;8.560;2022-12-18T09:39:05;101400.34;;;-3.93;100.00
31096;BME280;17749;51.962;8.560;2022-12-18T09:41:54;101392.84;;;-3.86;100.00
31096;BME280;17749;51.962;8.560;2022-12-18T09:44:25;101396.31;;;-3.85;100.00
31096;BME280;17749;51.962;8.560;2022-12-18T09:47:18;101393.88;;;-3.82;100.00
31096;BME280;17749;51.962;8.560;2022-12-18T09:49:50;101404.50;;;-3.76;100.00
31096;BME280;17749;51.962;8.560;2022-12-18T09:52:23;101403.06;;;-3.68;100.00
31096;BME280;17749;51.962;8.560;2022-12-18T09:55:00;101397.88;;;-3.68;100.00
31096;BME280;17749;51.962;8.560;2022-12-18T09:57:29;101400.59;;;-3.65;100.00
31096;BME280;17749;51.962;8.560;2022-12-18T10:00:16;101406.03;;;-3.59;100.00
31096;BME280;17749;51.962;8.560;2022-12-18T10:02:45;101405.53;;;-3.48;100.00
31096;BME280;17749;51.962;8.560;2022-12-18T10:05:16;101409.09;;;-3.46;100.00
31096;BME280;17749;51.962;8.560;2022-12-18T10:08:00;101404.91;;;-3.43;100.00
31096;BME280;17749;51.962;8.560;2022-12-18T10:13:31;101406.97;;;-3.34;100.00
31096;BME280;17749;51.962;8.560;2022-12-18T10:21:48;101386.72;;;-3.17;100.00
31096;BME280;17749;51.962;8.560;2022-12-18T10:26:52;101355.97;;;-3.03;100.00
31096;BME280;17749;51.962;8.560;2022-12-18T10:29:19;101345.84;;;-2.94;100.00
31096;BME280;17749;51.962;8.560;2022-12-18T10:31:46;101335.66;;;-2.87;100.00
31096;BME280;17749;51.962;8.560;2022-12-18T10:34:13;101326.44;;;-2.77;100.00
31096;BME280;17749;51.962;8.560;2022-12-18T10:36:40;101327.41;;;-2.73;100.00
31096;BME280;17749;51.962;8.560;2022-12-18T10:39:34;101328.72;;;-2.60;100.00
31096;BME280;17749;51.962;8.560;2022-12-18T10:42:16;101317.56;;;-2.56;100.00
31096;BME280;17749;51.962;8.560;2022-12-18T10:44:43;101308.94;;;-2.54;100.00
31096;BME280;17749;51.962;8.560;2022-12-18T10:47:14;101305.59;;;-2.50;100.00
31096;BME280;17749;51.962;8.560;2022-12-18T10:49:49;101299.69;;;-2.44;100.00
31096;BME280;17749;51.962;8.560;2022-12-18T10:54:59;101312.19;;;-2.34;100.00
31096;BME280;17749;51.962;8.560;2022-12-18T10:59:58;101311.59;;;-2.25;100.00
31096;BME280;17749;51.962;8.560;2022-12-18T11:02:35;101305.69;;;-2.19;100.00
31096;BME280;17749;51.962;8.560;2022-12-18T11:05:23;101298.69;;;-2.21;100.00
31096;BME280;17749;51.962;8.560;2022-12-18T11:07:51;101285.72;;;-2.17;100.00
31096;BME280;17749;51.962;8.560;2022-12-18T11:10:22;101270.25;;;-2.11;100.00
31096;BME280;17749;51.962;8.560;2022-12-18T11:12:54;101269.41;;;-2.10;100.00
31096;BME280;17749;51.962;8.560;2022-12-18T11:15:27;101280.94;;;-2.04;100.00
31096;BME280;17749;51.962;8.560;2022-12-18T11:17:56;101277.47;;;-2.03;100.00
31096;BME280;17749;51.962;8.560;2022-12-18T11:20:34;101267.91;;;-2.02;100.00
31096;BME280;17749;51.962;8.560;2022-12-18T11:23:05;101245.34;;;-2.00;100.00
31096;BME280;17749;51.962;8.560;2022-12-18T11:25:37;101242.00;;;-1.96;100.00
31096;BME280;17749;51.962;8.560;2022-12-18T11:31:17;101230.00;;;-1.89;100.00
31096;BME280;17749;51.962;8.560;2022-12-18T11:34:03;101231.72;;;-1.90;100.00
31096;BME280;17749;51.962;8.560;2022-12-18T11:36:52;101226.66;;;-1.84;100.00
31096;BME280;17749;51.962;8.560;2022-12-18T11:39:20;101222.59;;;-1.74;100.00
31096;BME280;17749;51.962;8.560;2022-12-18T11:42:12;101226.94;;;-1.74;100.00
31096;BME280;17749;51.962;8.560;2022-12-18T11:45:22;101221.94;;;-1.65;100.00
31096;BME280;17749;51.962;8.560;2022-12-18T11:48:14;101227.44;;;-1.56;100.00
31096;BME280;17749;51.962;8.560;2022-12-18T11:50:50;101211.75;;;-1.56;100.00
31096;BME280;17749;51.962;8.560;2022-12-18T11:53:18;101200.47;;;-1.55;100.00
31096;BME280;17749;51.962;8.560;2022-12-18T12:17:37;101177.00;;;-1.19;100.00
31096;BME280;17749;51.962;8.560;2022-12-18T12:25:41;101162.19;;;-1.18;100.00
31096;BME280;17749;51.962;8.560;2022-12-18T12:33:51;101157.22;;;-1.09;100.00
31096;BME280;17749;51.962;8.560;2022-12-18T12:39:11;101159.78;;;-1.11;100.00
31096;BME280;17749;51.962;8.560;2022-12-18T12:41:43;101162.44;;;-1.09;100.00
31096;BME280;17749;51.962;8.560;2022-12-18T12:44:39;101171.28;;;-1.04;100.00
31096;BME280;17749;51.962;8.560;2022-12-18T12:47:18;101171.22;;;-1.07;100.00
31096;BME280;17749;51.962;8.560;2022-12-18T12:49:47;101172.22;;;-1.00;100.00
31096;BME280;17749;51.962;8.560;2022-12-18T12:52:34;101169.59;;;-1.02;100.00
31096;BME280;17749;51.962;8.560;2022-12-18T12:55:05;101167.72;;;-1.06;100.00
31096;BME280;17749;51.962;8.560;2022-12-18T12:57:45;101169.50;;;-1.05;100.00
31096;BME280;17749;51.962;8.560;2022-12-18T13:00:15;101162.63;;;-1.00;100.00
31096;BME280;17749;51.962;8.560;2022-12-18T13:03:01;101162.75;;;-0.97;100.00
31096;BME280;17749;51.962;8.560;2022-12-18T13:05:41;101154.03;;;-0.96;100.00
31096;BME280;17749;51.962;8.560;2022-12-18T13:08:25;101148.81;;;-0.96;100.00
31096;BME280;17749;51.962;8.560;2022-12-18T13:10:59;101142.69;;;-0.96;100.00
31096;BME280;17749;51.962;8.560;2022-12-18T13:13:54;101129.63;;;-0.95;100.00
31096;BME280;17749;51.962;8.560;2022-12-18T13:16:24;101133.25;;;-0.90;100.00
31096;BME280;17749;51.962;8.560;2022-12-18T13:18:55;101124.50;;;-0.92;100.00
31096;BME280;17749;51.962;8.560;2022-12-18T13:21:31;101116.66;;;-0.92;100.00
31096;BME280;17749;51.962;8.560;2022-12-18T13:24:24;101110.53;;;-0.92;100.00
31096;BME280;17749;51.962;8.560;2022-12-18T13:26:52;101101.03;;;-0.89;100.00
31096;BME280;17749;51.962;8.560;2022-12-18T13:29:54;101101.94;;;-0.86;100.00
31096;BME280;17749;51.962;8.560;2022-12-18T13:32:23;101088.91;;;-0.85;100.00
31096;BME280;17749;51.962;8.560;2022-12-18T13:37:52;101082.91;;;-0.79;100.00
31096;BME280;17749;51.962;8.560;2022-12-18T13:43:24;101077.56;;;-0.85;100.00
31096;BME280;17749;51.962;8.560;2022-12-18T13:46:22;101080.22;;;-0.82;100.00
31096;BME280;17749;51.962;8.560;2022-12-18T13:49:00;101089.84;;;-0.81;100.00
31096;BME280;17749;51.962;8.560;2022-12-18T13:51:29;101091.63;;;-0.80;100.00
31096;BME280;17749;51.962;8.560;2022-12-18T13:53:57;101096.88;;;-0.79;100.00
31096;BME280;17749;51.962;8.560;2022-12-18T13:56:33;101087.22;;;-0.83;100.00
31096;BME280;17749;51.962;8.560;2022-12-18T13:59:17;101089.81;;;-0.83;100.00
31096;BME280;17749;51.962;8.560;2022-12-18T14:02:00;101080.22;;;-0.82;100.00
31096;BME280;17749;51.962;8.560;2022-12-18T14:04:32;101077.69;;;-0.79;100.00
31096;BME280;17749;51.962;8.560;2022-12-18T14:07:07;101071.53;;;-0.81;100.00
31096;BME280;17749;51.962;8.560;2022-12-18T14:12:47;101063.63;;;-0.84;100.00
31096;BME280;17749;51.962;8.560;2022-12-18T14:15:40;101065.47;;;-0.80;100.00
31096;BME280;17749;51.962;8.560;2022-12-18T14:21:04;101083.63;;;-0.86;100.00
31096;BME280;17749;51.962;8.560;2022-12-18T14:26:01;101081.09;;;-0.83;100.00
31096;BME280;17749;51.962;8.560;2022-12-18T14:28:32;101068.91;;;-0.81;100.00
31096;BME280;17749;51.962;8.560;2022-12-18T14:30:58;101061.88;;;-0.85;100.00
31096;BME280;17749;51.962;8.560;2022-12-18T14:33:27;101073.25;;;-0.83;100.00
31096;BME280;17749;51.962;8.560;2022-12-18T14:36:03;101070.53;;;-0.86;100.00
31096;BME280;17749;51.962;8.560;2022-12-18T14:38:37;101077.50;;;-0.89;100.00
31096;BME280;17749;51.962;8.560;2022-12-18T14:43:35;101050.47;;;-0.88;100.00
31096;BME280;17749;51.962;8.560;2022-12-18T14:46:04;101042.56;;;-0.91;100.00
31096;BME280;17749;51.962;8.560;2022-12-18T14:51:05;101052.97;;;-0.94;100.00
31096;BME280;17749;51.962;8.560;2022-12-18T14:53:38;101052.91;;;-0.97;100.00
31096;BME280;17749;51.962;8.560;2022-12-18T14:58:45;101052.81;;;-1.00;100.00
31096;BME280;17749;51.962;8.560;2022-12-18T15:01:44;101044.09;;;-1.02;100.00
31096;BME280;17749;51.962;8.560;2022-12-18T15:09:30;101034.44;;;-1.04;100.00
31096;BME280;17749;51.962;8.560;2022-12-18T15:11:59;101054.38;;;-1.09;100.00
31096;BME280;17749;51.962;8.560;2022-12-18T15:17:06;101050.72;;;-1.18;100.00
31096;BME280;17749;51.962;8.560;2022-12-18T15:19:42;101038.50;;;-1.17;100.00
31096;BME280;17749;51.962;8.560;2022-12-18T15:22:27;101053.34;;;-1.16;100.00
31096;BME280;17749;51.962;8.560;2022-12-18T15:24:56;101060.25;;;-1.20;100.00
31096;BME280;17749;51.962;8.560;2022-12-18T15:27:32;101053.22;;;-1.22;100.00
31096;BME280;17749;51.962;8.560;2022-12-18T15:32:39;101040.06;;;-1.25;100.00
31096;BME280;17749;51.962;8.560;2022-12-18T15:37:36;101029.63;;;-1.25;100.00
31096;BME280;17749;51.962;8.560;2022-12-18T15:40:03;101020.91;;;-1.24;100.00
31096;BME280;17749;51.962;8.560;2022-12-18T15:42:30;101021.78;;;-1.24;100.00
31096;BME280;17749;51.962;8.560;2022-12-18T15:45:16;101001.69;;;-1.26;100.00
31096;BME280;17749;51.962;8.560;2022-12-18T15:47:44;101005.19;;;-1.27;100.00
31096;BME280;17749;51.962;8.560;2022-12-18T15:50:11;100996.47;;;-1.26;100.00
31096;BME280;17749;51.962;8.560;2022-12-18T15:52:43;100989.56;;;-1.24;100.00
31096;BME280;17749;51.962;8.560;2022-12-18T15:55:19;100976.44;;;-1.26;100.00
31096;BME280;17749;51.962;8.560;2022-12-18T15:58:07;100979.97;;;-1.25;100.00
31096;BME280;17749;51.962;8.560;2022-12-18T16:00:35;100984.28;;;-1.27;100.00
31096;BME280;17749;51.962;8.560;2022-12-18T16:03:03;100985.97;;;-1.29;100.00
31096;BME280;17749;51.962;8.560;2022-12-18T16:05:31;100982.41;;;-1.32;100.00
31096;BME280;17749;51.962;8.560;2022-12-18T16:07:58;100987.66;;;-1.32;100.00
31096;BME280;17749;51.962;8.560;2022-12-18T16:10:26;100997.28;;;-1.29;100.00
31096;BME280;17749;51.962;8.560;2022-12-18T16:12:53;100982.56;;;-1.25;100.00
31096;BME280;17749;51.962;8.560;2022-12-18T16:15:20;100973.88;;;-1.24;100.00
31096;BME280;17749;51.962;8.560;2022-12-18T16:17:50;100958.19;;;-1.24;100.00
31096;BME280;17749;51.962;8.560;2022-12-18T16:20:22;100942.56;;;-1.21;100.00
31096;BME280;17749;51.962;8.560;2022-12-18T16:22:49;100952.16;;;-1.22;100.00
31096;BME280;17749;51.962;8.560;2022-12-18T16:25:21;100954.72;;;-1.23;100.00
31096;BME280;17749;51.962;8.560;2022-12-18T16:27:49;100946.81;;;-1.26;100.00
31096;BME280;17749;51.962;8.560;2022-12-18T16:30:22;100933.75;;;-1.26;100.00
31096;BME280;17749;51.962;8.560;2022-12-18T16:32:49;100943.38;;;-1.25;100.00
31096;BME280;17749;51.962;8.560;2022-12-18T16:35:16;100924.16;;;-1.27;100.00
31096;BME280;17749;51.962;8.560;2022-12-18T16:37:43;100940.75;;;-1.25;100.00
31096;BME280;17749;51.962;8.560;2022-12-18T16:40:13;100926.81;;;-1.24;100.00
31096;BME280;17749;51.962;8.560;2022-12-18T16:42:41;100917.16;;;-1.28;100.00
31096;BME280;17749;51.962;8.560;2022-12-18T16:45:17;100929.41;;;-1.26;100.00
31096;BME280;17749;51.962;8.560;2022-12-18T16:47:44;100933.81;;;-1.23;100.00
31096;BME280;17749;51.962;8.560;2022-12-18T16:50:11;100924.22;;;-1.24;100.00
31096;BME280;17749;51.962;8.560;2022-12-18T16:52:38;100934.66;;;-1.24;100.00
31096;BME280;17749;51.962;8.560;2022-12-18T16:55:06;100932.09;;;-1.23;100.00
31096;BME280;17749;51.962;8.560;2022-12-18T16:57:33;100918.06;;;-1.26;100.00
31096;BME280;17749;51.962;8.560;2022-12-18T17:00:00;100913.72;;;-1.26;100.00
31096;BME280;17749;51.962;8.560;2022-12-18T17:02:31;100907.66;;;-1.23;100.00
31096;BME280;17749;51.962;8.560;2022-12-18T17:04:58;100900.69;;;-1.24;100.00
31096;BME280;17749;51.962;8.560;2022-12-18T17:07:25;100901.63;;;-1.21;100.00
31096;BME280;17749;51.962;8.560;2022-12-18T17:09:54;100904.25;;;-1.21;100.00
31096;BME280;17749;51.962;8.560;2022-12-18T17:12:21;100902.53;;;-1.20;100.00
31096;BME280;17749;51.962;8.560;2022-12-18T17:14:48;100890.28;;;-1.21;100.00
31096;BME280;17749;51.962;8.560;2022-12-18T17:17:16;100896.44;;;-1.19;100.00
31096;BME280;17749;51.962;8.560;2022-12-18T17:19:49;100893.88;;;-1.16;100.00
31096;BME280;17749;51.962;8.560;2022-12-18T17:22:16;100886.97;;;-1.14;100.00
31096;BME280;17749;51.962;8.560;2022-12-18T17:24:43;100888.72;;;-1.13;100.00
31096;BME280;17749;51.962;8.560;2022-12-18T17:27:10;100889.63;;;-1.13;100.00
31096;BME280;17749;51.962;8.560;2022-12-18T17:29:37;100880.00;;;-1.14;100.00
31096;BME280;17749;51.962;8.560;2022-12-18T17:32:12;100882.63;;;-1.14;100.00
31096;BME280;17749;51.962;8.560;2022-12-18T17:34:39;100878.25;;;-1.13;100.00
31096;BME280;17749;51.962;8.560;2022-12-18T17:37:06;100880.88;;;-1.13;100.00
31096;BME280;17749;51.962;8.560;2022-12-18T17:39:33;100878.34;;;-1.08;100.00
31096;BME280;17749;51.962;8.560;2022-12-18T17:42:00;100874.00;;;-1.09;100.00
31096;BME280;17749;51.962;8.560;2022-12-18T17:44:27;100872.16;;;-1.15;100.00
31096;BME280;17749;51.962;8.560;2022-12-18T17:46:54;100874.81;;;-1.12;100.00
31096;BME280;17749;51.962;8.560;2022-12-18T17:49:21;100879.16;;;-1.13;100.00
31096;BME280;17749;51.962;8.560;2022-12-18T17:51:48;100874.75;;;-1.15;100.00
31096;BME280;17749;51.962;8.560;2022-12-18T17:54:15;100878.34;;;-1.10;100.00
31096;BME280;17749;51.962;8.560;2022-12-18T17:56:43;100878.25;;;-1.13;100.00
31096;BME280;17749;51.962;8.560;2022-12-18T17:59:10;100876.41;;;-1.19;100.00
31096;BME280;17749;51.962;8.560;2022-12-18T18:01:37;100872.91;;;-1.19;100.00
31096;BME280;17749;51.962;8.560;2022-12-18T18:04:11;100879.03;;;-1.19;100.00
31096;BME280;17749;51.962;8.560;2022-12-18T18:06:38;100866.00;;;-1.17;100.00
31096;BME280;17749;51.962;8.560;2022-12-18T18:09:08;100872.03;;;-1.20;100.00
31096;BME280;17749;51.962;8.560;2022-12-18T18:11:43;100868.41;;;-1.28;100.00
31096;BME280;17749;51.962;8.560;2022-12-18T18:14:29;100862.25;;;-1.28;100.00
31096;BME280;17749;51.962;8.560;2022-12-18T18:16:56;100871.91;;;-1.26;100.00
31096;BME280;17749;51.962;8.560;2022-12-18T18:19:31;100870.97;;;-1.29;100.00
31096;BME280;17749;51.962;8.560;2022-12-18T18:21:59;100879.63;;;-1.34;100.00
31096;BME280;17749;51.962;8.560;2022-12-18T18:24:26;100886.59;;;-1.33;100.00
31096;BME280;17749;51.962;8.560;2022-12-18T18:26:53;100880.50;;;-1.33;100.00
31096;BME280;17749;51.962;8.560;2022-12-18T18:29:23;100875.22;;;-1.36;100.00
31096;BME280;17749;51.962;8.560;2022-12-18T18:31:52;100884.69;;;-1.41;100.00
31096;BME280;17749;51.962;8.560;2022-12-18T18:34:22;100881.16;;;-1.42;100.00
31096;BME280;17749;51.962;8.560;2022-12-18T18:36:49;100879.47;;;-1.40;100.00
31096;BME280;17749;51.962;8.560;2022-12-18T18:39:16;100875.94;;;-1.42;100.00
31096;BME280;17749;51.962;8.560;2022-12-18T18:41:45;100874.13;;;-1.46;100.00
31096;BME280;17749;51.962;8.560;2022-12-18T18:44:15;100875.03;;;-1.44;100.00
31096;BME280;17749;51.962;8.560;2022-12-18T18:46:42;100873.16;;;-1.49;100.00
31096;BME280;17749;51.962;8.560;2022-12-18T18:49:09;100860.09;;;-1.51;100.00
31096;BME280;17749;51.962;8.560;2022-12-18T18:51:38;100865.25;;;-1.54;100.00
31096;BME280;17749;51.962;8.560;2022-12-18T18:54:05;100865.25;;;-1.54;100.00
31096;BME280;17749;51.962;8.560;2022-12-18T18:56:32;100868.72;;;-1.53;100.00
31096;BME280;17749;51.962;8.560;2022-12-18T18:59:19;100861.72;;;-1.56;100.00
31096;BME280;17749;51.962;8.560;2022-12-18T19:01:56;100862.59;;;-1.56;100.00
31096;BME280;17749;51.962;8.560;2022-12-18T19:04:23;100867.81;;;-1.57;100.00
31096;BME280;17749;51.962;8.560;2022-12-18T19:06:51;100864.22;;;-1.62;100.00
31096;BME280;17749;51.962;8.560;2022-12-18T19:09:20;100851.16;;;-1.62;100.00
31096;BME280;17749;51.962;8.560;2022-12-18T19:11:46;100855.44;;;-1.64;100.00
31096;BME280;17749;51.962;8.560;2022-12-18T19:14:32;100861.50;;;-1.65;100.00
31096;BME280;17749;51.962;8.560;2022-12-18T19:16:59;100870.13;;;-1.69;100.00
31096;BME280;17749;51.962;8.560;2022-12-18T19:19:26;100872.63;;;-1.74;100.00
31096;BME280;17749;51.962;8.560;2022-12-18T19:21:53;100859.56;;;-1.75;100.00
31096;BME280;17749;51.962;8.560;2022-12-18T19:24:20;100870.06;;;-1.72;100.00
31096;BME280;17749;51.962;8.560;2022-12-18T19:26:48;100855.28;;;-1.72;100.00
31096;BME280;17749;51.962;8.560;2022-12-18T19:29:14;100875.25;;;-1.75;100.00
31096;BME280;17749;51.962;8.560;2022-12-18T19:31:41;100870.81;;;-1.78;100.00
31096;BME280;17749;51.962;8.560;2022-12-18T19:34:08;100866.41;;;-1.81;100.00
31096;BME280;17749;51.962;8.560;2022-12-18T19:36:37;100873.31;;;-1.83;100.00
31096;BME280;17749;51.962;8.560;2022-12-18T19:39:10;100873.31;;;-1.83;100.00
31096;BME280;17749;51.962;8.560;2022-12-18T19:41:38;100865.50;;;-1.81;100.00
31096;BME280;17749;51.962;8.560;2022-12-18T19:44:06;100880.16;;;-1.88;100.00
31096;BME280;17749;51.962;8.560;2022-12-18T19:46:35;100878.38;;;-1.89;100.00
31096;BME280;17749;51.962;8.560;2022-12-18T19:49:06;100881.00;;;-1.89;100.00
31096;BME280;17749;51.962;8.560;2022-12-18T19:51:34;100891.44;;;-1.90;100.00
31096;BME280;17749;51.962;8.560;2022-12-18T19:54:01;100880.16;;;-1.88;100.00
31096;BME280;17749;51.962;8.560;2022-12-18T19:56:30;100885.41;;;-1.88;100.00
31096;BME280;17749;51.962;8.560;2022-12-18T19:59:02;100895.03;;;-1.85;100.00
31096;BME280;17749;51.962;8.560;2022-12-18T20:01:33;100886.28;;;-1.87;100.00
31096;BME280;17749;51.962;8.560;2022-12-18T20:04:04;100891.44;;;-1.90;100.00
31096;BME280;17749;51.962;8.560;2022-12-18T20:06:45;100889.50;;;-1.99;100.00
31096;BME280;17749;51.962;8.560;2022-12-18T20:09:12;100881.69;;;-1.98;100.00
31096;BME280;17749;51.962;8.560;2022-12-18T20:11:38;100885.16;;;-1.97;100.00
31096;BME280;17749;51.962;8.560;2022-12-18T20:14:08;100882.56;;;-1.97;100.00
31096;BME280;17749;51.962;8.560;2022-12-18T20:16:35;100886.03;;;-1.98;100.00
31096;BME280;17749;51.962;8.560;2022-12-18T20:19:03;100878.19;;;-1.98;100.00
31096;BME280;17749;51.962;8.560;2022-12-18T20:21:31;100863.41;;;-1.98;100.00
31096;BME280;17749;51.962;8.560;2022-12-18T20:23:58;100863.34;;;-2.01;100.00
31096;BME280;17749;51.962;8.560;2022-12-18T20:26:26;100871.22;;;-1.99;100.00
31096;BME280;17749;51.962;8.560;2022-12-18T20:28:53;100872.91;;;-2.01;100.00
31096;BME280;17749;51.962;8.560;2022-12-18T20:31:21;100878.94;;;-2.04;100.00
31096;BME280;17749;51.962;8.560;2022-12-18T20:33:48;100865.06;;;-2.01;100.00
31096;BME280;17749;51.962;8.560;2022-12-18T20:36:19;100878.16;;;-2.00;100.00
31096;BME280;17749;51.962;8.560;2022-12-18T20:38:52;100865.84;;;-2.05;100.00
31096;BME280;17749;51.962;8.560;2022-12-18T20:41:24;100873.72;;;-2.02;100.00
31096;BME280;17749;51.962;8.560;2022-12-18T20:44:10;100880.75;;;-2.00;100.00
31096;BME280;17749;51.962;8.560;2022-12-18T20:46:51;100882.50;;;-2.00;100.00
31096;BME280;17749;51.962;8.560;2022-12-18T20:49:18;100881.69;;;-1.98;100.00
31096;BME280;17749;51.962;8.560;2022-12-18T20:51:56;100878.19;;;-1.98;100.00
31096;BME280;17749;51.962;8.560;2022-12-18T20:54:25;100879.88;;;-2.00;100.00
31096;BME280;17749;51.962;8.560;2022-12-18T20:56:53;100874.66;;;-2.00;100.00
31096;BME280;17749;51.962;8.560;2022-12-18T20:59:20;100872.84;;;-2.04;100.00
31096;BME280;17749;51.962;8.560;2022-12-18T21:01:48;100874.59;;;-2.03;100.00
31096;BME280;17749;51.962;8.560;2022-12-18T21:04:20;100871.22;;;-1.99;100.00